createdAt,value
2023-04-09T00:02:14.368Z,38.33
2023-04-09T00:04:41.203Z,39.67
2023-04-09T00:07:08.075Z,38.38
2023-04-09T00:09:34.800Z,39.88
2023-04-09T00:12:02.064Z,35.45
2023-04-09T00:14:29.157Z,36.33
2023-04-09T00:16:56.098Z,39.17
2023-04-09T00:19:22.893Z,36.45
2023-04-09T00:21:49.634Z,38.92
2023-04-09T00:24:16.278Z,39.42
2023-04-09T00:26:42.931Z,38.73
2023-04-09T00:29:09.623Z,39.22
2023-04-09T00:31:36.282Z,38.72
2023-04-09T00:34:02.996Z,37.17
2023-04-09T00:36:29.702Z,42.67
2023-04-09T00:38:56.698Z,38.33
2023-04-09T00:41:23.396Z,37.58
2023-04-09T00:43:50.225Z,36.45
2023-04-09T00:46:17.928Z,39.08
2023-04-09T00:48:44.949Z,37.20
2023-04-09T00:51:11.576Z,36.60
2023-04-09T00:53:38.389Z,37.17
2023-04-09T00:56:06.661Z,41.78
2023-04-09T00:58:33.839Z,37.33
2023-04-09T01:01:00.662Z,39.63
2023-04-09T01:03:27.599Z,39.07
2023-04-09T01:06:05.821Z,41.47
2023-04-09T01:08:32.609Z,39.42
2023-04-09T01:11:37.280Z,39.85
2023-04-09T01:14:19.660Z,38.00
2023-04-09T01:16:52.872Z,39.20
2023-04-09T01:19:34.717Z,36.70
2023-04-09T01:22:04.284Z,37.15
2023-04-09T01:25:03.456Z,40.72
2023-04-09T01:28:02.877Z,38.50
2023-04-09T01:30:30.358Z,38.90
2023-04-09T01:32:58.809Z,38.42
2023-04-09T01:35:26.372Z,45.28
2023-04-09T01:37:54.859Z,51.58
2023-04-09T01:40:21.563Z,54.53
2023-04-09T01:42:49.771Z,56.83
2023-04-09T01:45:17.253Z,63.22
2023-04-09T01:47:44.628Z,82.57
2023-04-09T01:50:11.436Z,86.50
2023-04-09T01:52:39.287Z,61.83
2023-04-09T01:55:06.701Z,57.57
2023-04-09T01:57:33.406Z,54.42
2023-04-09T02:00:00.255Z,41.88
2023-04-09T02:02:55.172Z,43.85
2023-04-09T02:05:27.094Z,42.35
2023-04-09T02:07:57.084Z,42.80
2023-04-09T02:10:26.988Z,39.53
2023-04-09T02:12:55.482Z,38.38
2023-04-09T02:15:23.282Z,39.33
2023-04-09T02:17:50.431Z,38.38
2023-04-09T02:20:20.198Z,38.87
2023-04-09T02:22:46.985Z,34.88
2023-04-09T02:25:14.023Z,36.53
2023-04-09T02:27:40.874Z,35.40
2023-04-09T02:30:08.183Z,36.13
2023-04-09T02:32:34.879Z,36.23
2023-04-09T02:35:01.635Z,43.35
2023-04-09T02:37:28.285Z,44.85
2023-04-09T02:39:55.181Z,35.83
2023-04-09T02:42:21.925Z,40.05
2023-04-09T02:44:48.843Z,40.03
2023-04-09T02:47:15.573Z,40.45
2023-04-09T02:49:42.285Z,39.72
2023-04-09T02:52:10.666Z,37.88
2023-04-09T02:54:37.352Z,41.72
2023-04-09T02:57:04.043Z,36.70
2023-04-09T02:59:32.828Z,42.17
2023-04-09T03:01:59.647Z,41.95
2023-04-09T03:04:26.516Z,39.63
2023-04-09T03:06:53.306Z,44.80
2023-04-09T03:09:20.000Z,41.10
2023-04-09T03:11:46.664Z,41.25
2023-04-09T03:14:13.380Z,40.58
2023-04-09T03:16:40.161Z,37.35
2023-04-09T03:19:06.899Z,35.75
2023-04-09T03:21:33.590Z,38.30
2023-04-09T03:24:00.305Z,35.75
2023-04-09T03:26:27.746Z,36.42
2023-04-09T03:28:54.811Z,34.85
2023-04-09T03:31:21.732Z,37.90
2023-04-09T03:33:48.395Z,41.27
2023-04-09T03:36:15.467Z,41.58
2023-04-09T03:38:54.196Z,38.25
2023-04-09T03:41:26.942Z,37.00
2023-04-09T03:43:54.448Z,33.28
2023-04-09T03:46:25.911Z,42.53
2023-04-09T03:48:52.965Z,35.33
2023-04-09T03:51:20.080Z,36.08
2023-04-09T03:53:52.883Z,38.13
2023-04-09T03:56:19.787Z,35.83
2023-04-09T03:58:48.353Z,39.33
2023-04-09T04:01:16.432Z,35.47
2023-04-09T04:03:53.590Z,35.75
2023-04-09T04:06:35.486Z,36.83
2023-04-09T04:09:20.634Z,36.70
2023-04-09T04:12:02.118Z,38.40
2023-04-09T04:14:43.203Z,39.47
2023-04-09T04:17:20.660Z,36.80
2023-04-09T04:19:48.322Z,33.55
2023-04-09T04:22:15.009Z,36.42
2023-04-09T04:24:45.218Z,32.73
2023-04-09T04:27:16.720Z,34.08
2023-04-09T04:29:44.245Z,32.00
2023-04-09T04:32:40.144Z,36.15
2023-04-09T04:35:10.368Z,37.15
2023-04-09T04:37:37.827Z,34.73
2023-04-09T04:40:05.437Z,32.70
2023-04-09T04:42:35.727Z,33.60
2023-04-09T04:45:09.619Z,35.80
2023-04-09T04:47:59.180Z,31.50
2023-04-09T04:50:25.979Z,34.30
2023-04-09T04:53:02.864Z,30.38
2023-04-09T04:55:37.330Z,35.67
2023-04-09T04:58:04.418Z,31.45
2023-04-09T05:00:40.794Z,32.65
2023-04-09T05:03:07.918Z,34.00
2023-04-09T05:05:57.190Z,31.83
2023-04-09T05:08:27.453Z,35.90
2023-04-09T05:10:56.303Z,35.97
2023-04-09T05:13:28.600Z,31.80
2023-04-09T05:15:56.299Z,35.60
2023-04-09T05:18:23.570Z,34.97
2023-04-09T05:20:50.391Z,32.92
2023-04-09T05:23:17.868Z,34.45
2023-04-09T05:25:51.033Z,37.88
2023-04-09T05:28:26.062Z,34.60
2023-04-09T05:31:03.396Z,37.25
2023-04-09T05:33:37.688Z,34.42
2023-04-09T05:36:08.836Z,32.35
2023-04-09T05:38:35.776Z,37.22
2023-04-09T05:41:02.579Z,35.27
2023-04-09T05:43:29.505Z,43.00
2023-04-09T05:45:56.441Z,38.88
2023-04-09T05:48:23.866Z,45.90
2023-04-09T05:50:55.817Z,40.80
2023-04-09T05:53:25.618Z,43.53
2023-04-09T05:55:52.438Z,41.92
2023-04-09T05:58:23.239Z,42.55
2023-04-09T06:00:51.856Z,42.55
2023-04-09T06:03:18.860Z,41.92
2023-04-09T06:05:46.667Z,40.80
2023-04-09T06:08:14.108Z,42.60
2023-04-09T06:10:41.498Z,41.42
2023-04-09T06:13:09.656Z,43.40
2023-04-09T06:15:38.622Z,40.00
2023-04-09T06:18:05.422Z,48.27
2023-04-09T06:20:32.446Z,42.75
2023-04-09T06:22:59.219Z,41.67
2023-04-09T06:25:26.038Z,37.88
2023-04-09T06:27:52.691Z,41.10
2023-04-09T06:30:19.341Z,39.20
2023-04-09T06:32:54.613Z,38.20
2023-04-09T06:35:22.093Z,35.20
2023-04-09T06:37:48.790Z,31.35
2023-04-09T06:40:15.461Z,37.78
2023-04-09T06:42:42.120Z,31.97
2023-04-09T06:45:19.841Z,30.25
2023-04-09T06:47:46.546Z,30.63
2023-04-09T06:50:13.279Z,31.58
2023-04-09T06:52:40.046Z,30.20
2023-04-09T06:55:07.067Z,26.67
2023-04-09T06:57:33.744Z,29.15
2023-04-09T07:00:00.572Z,32.72
2023-04-09T07:02:27.690Z,30.90
2023-04-09T07:04:54.654Z,28.27
2023-04-09T07:07:23.260Z,32.13
2023-04-09T07:09:52.605Z,30.73
2023-04-09T07:12:28.256Z,29.35
2023-04-09T07:14:58.637Z,28.40
2023-04-09T07:17:25.651Z,29.73
2023-04-09T07:19:52.385Z,29.17
2023-04-09T07:22:19.033Z,33.03
2023-04-09T07:24:46.732Z,26.70
2023-04-09T07:27:13.814Z,28.17
2023-04-09T07:29:44.548Z,27.13
2023-04-09T07:32:11.480Z,28.33
2023-04-09T07:34:38.186Z,27.45
2023-04-09T07:37:05.481Z,25.65
2023-04-09T07:39:32.254Z,29.13
2023-04-09T07:42:02.695Z,25.58
2023-04-09T07:44:29.391Z,25.77
2023-04-09T07:46:56.516Z,31.15
2023-04-09T07:49:23.304Z,25.23
2023-04-09T07:51:50.166Z,29.00
2023-04-09T07:54:16.851Z,27.20
2023-04-09T07:56:43.626Z,28.80
2023-04-09T07:59:11.018Z,27.67
2023-04-09T08:01:37.749Z,27.02
2023-04-09T08:04:04.739Z,31.45
2023-04-09T08:06:31.849Z,26.67
2023-04-09T08:08:58.567Z,29.87
2023-04-09T08:11:25.982Z,27.88
2023-04-09T08:13:53.006Z,27.65
2023-04-09T08:16:21.253Z,26.23
2023-04-09T08:18:47.980Z,27.33
2023-04-09T08:21:14.733Z,27.23
2023-04-09T08:23:41.453Z,28.38
2023-04-09T08:26:08.164Z,30.33
2023-04-09T08:28:34.800Z,31.98
2023-04-09T08:31:02.030Z,25.25
2023-04-09T08:33:29.107Z,23.13
2023-04-09T08:35:55.801Z,34.88
2023-04-09T08:38:22.670Z,34.33
2023-04-09T08:40:49.373Z,31.77
2023-04-09T08:43:17.944Z,26.58
2023-04-09T08:45:44.697Z,29.87
2023-04-09T08:48:13.648Z,27.75
2023-04-09T08:50:40.700Z,25.63
2023-04-09T08:53:09.529Z,28.60
2023-04-09T08:55:37.345Z,30.50
2023-04-09T08:58:07.534Z,31.13
2023-04-09T09:00:34.272Z,30.38
2023-04-09T09:03:13.156Z,29.48
2023-04-09T09:05:41.011Z,31.58
2023-04-09T09:08:23.236Z,30.67
2023-04-09T09:10:50.329Z,32.40
2023-04-09T09:13:27.592Z,32.25
2023-04-09T09:16:11.398Z,35.22
2023-04-09T09:18:40.317Z,32.35
2023-04-09T09:21:10.553Z,32.30
2023-04-09T09:23:37.823Z,31.47
2023-04-09T09:26:16.521Z,31.27
2023-04-09T09:28:43.567Z,30.88
2023-04-09T09:31:11.931Z,30.80
2023-04-09T09:33:39.627Z,30.50
2023-04-09T09:36:09.156Z,32.57
2023-04-09T09:38:55.657Z,29.65
2023-04-09T09:41:23.340Z,35.95
2023-04-09T09:43:50.799Z,28.88
2023-04-09T09:46:17.769Z,28.55
2023-04-09T09:48:49.598Z,26.73
2023-04-09T09:51:16.729Z,29.30
2023-04-09T09:53:46.604Z,26.30
2023-04-09T09:56:22.286Z,31.17
2023-04-09T09:59:19.805Z,28.52
2023-04-09T10:01:48.176Z,28.97
2023-04-09T10:04:16.385Z,30.45
2023-04-09T10:06:47.688Z,28.08
2023-04-09T10:09:15.521Z,28.55
2023-04-09T10:11:47.829Z,23.77
2023-04-09T10:14:16.292Z,27.03
2023-04-09T10:16:43.472Z,26.15
2023-04-09T10:19:14.157Z,26.83
2023-04-09T10:21:44.641Z,27.30
2023-04-09T10:24:11.749Z,27.20
2023-04-09T10:26:41.635Z,26.43
2023-04-09T10:29:16.404Z,26.55
2023-04-09T10:32:05.625Z,24.45
2023-04-09T10:34:37.674Z,24.42
2023-04-09T10:37:06.590Z,23.90
2023-04-09T10:39:33.745Z,25.83
2023-04-09T10:42:06.778Z,24.55
2023-04-09T10:44:35.731Z,23.52
2023-04-09T10:47:03.957Z,25.13
2023-04-09T10:49:38.107Z,24.33
2023-04-09T10:52:13.605Z,24.67
2023-04-09T10:54:46.114Z,21.05
2023-04-09T10:57:23.000Z,22.63
2023-04-09T10:59:54.490Z,22.63
2023-04-09T11:02:39.436Z,21.05
2023-04-09T11:05:19.936Z,20.93
2023-04-09T11:08:05.108Z,20.92
2023-04-09T11:10:35.629Z,23.75
2023-04-09T11:13:03.520Z,21.63
2023-04-09T11:15:32.160Z,16.92
2023-04-09T11:17:59.067Z,17.43
2023-04-09T11:20:26.729Z,16.83
2023-04-09T11:22:55.744Z,17.17
2023-04-09T11:25:24.212Z,15.02
2023-04-09T11:27:51.172Z,14.88
2023-04-09T11:30:18.086Z,13.97
2023-04-09T11:32:45.450Z,17.02
2023-04-09T11:35:14.220Z,16.00
2023-04-09T11:37:42.237Z,12.68
2023-04-09T11:40:22.603Z,15.73
2023-04-09T11:42:51.429Z,15.13
2023-04-09T11:45:19.545Z,17.13
2023-04-09T11:47:47.282Z,17.08
2023-04-09T11:50:15.639Z,14.82
2023-04-09T11:52:44.632Z,12.32
2023-04-09T11:55:11.678Z,11.80
2023-04-09T11:57:46.873Z,11.10
2023-04-09T12:00:15.345Z,11.13
2023-04-09T12:02:46.205Z,13.80
2023-04-09T12:05:28.598Z,15.27
2023-04-09T12:08:03.040Z,16.77
2023-04-09T12:10:33.680Z,14.00
2023-04-09T12:13:05.373Z,15.13
2023-04-09T12:15:34.391Z,15.52
2023-04-09T12:18:01.531Z,14.57
2023-04-09T12:20:31.203Z,15.73
2023-04-09T12:23:00.197Z,16.30
2023-04-09T12:25:27.621Z,15.65
2023-04-09T12:27:56.053Z,17.00
2023-04-09T12:30:24.053Z,17.30
2023-04-09T12:32:51.801Z,12.67
2023-04-09T12:35:18.627Z,13.32
2023-04-09T12:37:45.367Z,15.88
2023-04-09T12:40:15.435Z,13.30
2023-04-09T12:42:43.907Z,15.48
2023-04-09T12:45:12.371Z,16.40
2023-04-09T12:47:39.855Z,14.93
2023-04-09T12:50:08.323Z,15.13
2023-04-09T12:52:35.592Z,13.10
2023-04-09T12:55:03.132Z,14.88
2023-04-09T12:57:30.332Z,14.90
2023-04-09T12:59:57.293Z,13.50
2023-04-09T13:02:24.391Z,13.85
2023-04-09T13:04:52.790Z,18.13
2023-04-09T13:07:20.839Z,16.02
2023-04-09T13:09:51.198Z,16.10
2023-04-09T13:12:18.027Z,14.27
2023-04-09T13:14:47.252Z,15.18
2023-04-09T13:17:15.131Z,14.13
2023-04-09T13:19:42.817Z,15.60
2023-04-09T13:22:10.349Z,17.47
2023-04-09T13:24:37.813Z,14.02
2023-04-09T13:27:05.659Z,17.45
2023-04-09T13:29:32.419Z,13.52
2023-04-09T13:32:01.599Z,14.48
2023-04-09T13:34:28.544Z,13.90
2023-04-09T13:36:55.320Z,14.30
2023-04-09T13:39:22.003Z,13.93
2023-04-09T13:41:48.768Z,12.98
2023-04-09T13:44:15.625Z,14.50
2023-04-09T13:46:42.374Z,19.07
2023-04-09T13:49:09.152Z,13.52
2023-04-09T13:51:35.970Z,13.00
2023-04-09T13:54:05.316Z,12.15
2023-04-09T13:56:32.738Z,12.65
2023-04-09T13:58:59.422Z,15.33
2023-04-09T14:01:28.248Z,13.20
2023-04-09T14:03:55.785Z,13.80
2023-04-09T14:06:22.933Z,12.70
2023-04-09T14:08:49.651Z,12.00
2023-04-09T14:11:16.731Z,12.63
2023-04-09T14:13:43.566Z,12.02
2023-04-09T14:16:10.638Z,13.20
2023-04-09T14:18:37.422Z,12.18
2023-04-09T14:21:04.325Z,10.75
2023-04-09T14:23:31.034Z,14.67
2023-04-09T14:25:57.857Z,14.60
2023-04-09T14:28:24.566Z,13.05
2023-04-09T14:30:51.310Z,11.73
2023-04-09T14:33:18.143Z,12.52
2023-04-09T14:35:44.815Z,11.87
2023-04-09T14:38:11.615Z,11.77
2023-04-09T14:40:38.264Z,12.55
2023-04-09T14:43:04.991Z,13.57
2023-04-09T14:45:32.298Z,12.43
2023-04-09T14:47:58.998Z,14.80
2023-04-09T14:50:25.731Z,13.63
2023-04-09T14:52:52.612Z,14.32
2023-04-09T14:55:19.642Z,13.60
2023-04-09T14:57:46.699Z,13.07
2023-04-09T15:00:13.845Z,13.53
2023-04-09T15:02:41.475Z,14.20
2023-04-09T15:05:09.003Z,14.07
2023-04-09T15:07:35.894Z,13.85
2023-04-09T15:10:02.769Z,13.23
2023-04-09T15:12:31.390Z,13.82
2023-04-09T15:14:58.188Z,15.88
2023-04-09T15:17:26.099Z,13.88
2023-04-09T15:19:54.132Z,15.77
2023-04-09T15:22:21.333Z,14.50
2023-04-09T15:24:48.000Z,16.60
2023-04-09T15:27:14.665Z,13.63
2023-04-09T15:29:41.391Z,20.27
2023-04-09T15:32:08.324Z,11.52
2023-04-09T15:34:35.322Z,12.88
2023-04-09T15:37:02.018Z,14.93
2023-04-09T15:39:28.790Z,12.98
2023-04-09T15:41:58.888Z,13.10
2023-04-09T15:44:26.110Z,12.52
2023-04-09T15:46:53.014Z,14.27
2023-04-09T15:49:20.208Z,13.20
2023-04-09T15:51:47.034Z,12.25
2023-04-09T15:54:13.836Z,12.30
2023-04-09T15:56:40.609Z,12.30
2023-04-09T15:59:08.316Z,12.50
2023-04-09T16:01:36.270Z,12.97
2023-04-09T16:04:04.611Z,12.52
2023-04-09T16:06:31.709Z,15.98
2023-04-09T16:08:58.419Z,13.18
2023-04-09T16:11:25.823Z,13.48
2023-04-09T16:13:52.511Z,14.23
2023-04-09T16:16:19.623Z,13.90
2023-04-09T16:18:46.339Z,12.48
2023-04-09T16:21:13.091Z,11.77
2023-04-09T16:23:39.912Z,13.10
2023-04-09T16:26:07.141Z,11.43
2023-04-09T16:28:33.894Z,11.18
2023-04-09T16:31:00.811Z,12.00
2023-04-09T16:33:27.703Z,13.48
2023-04-09T16:35:54.410Z,14.45
2023-04-09T16:38:21.074Z,13.73
2023-04-09T16:40:47.872Z,13.05
2023-04-09T16:43:14.521Z,12.55
2023-04-09T16:45:41.193Z,12.80
2023-04-09T16:48:12.041Z,13.65
2023-04-09T16:50:40.243Z,13.17
2023-04-09T16:53:08.749Z,13.43
2023-04-09T16:55:35.612Z,13.65
2023-04-09T16:58:02.360Z,14.45
2023-04-09T17:00:29.129Z,12.60
2023-04-09T17:02:57.580Z,14.83
2023-04-09T17:05:24.923Z,14.07
2023-04-09T17:07:53.443Z,12.77
2023-04-09T17:10:20.763Z,14.77
2023-04-09T17:12:48.063Z,12.27
2023-04-09T17:15:14.842Z,12.20
2023-04-09T17:17:41.664Z,14.48
2023-04-09T17:20:08.787Z,13.63
2023-04-09T17:22:35.642Z,13.48
2023-04-09T17:25:02.550Z,12.75
2023-04-09T17:27:29.269Z,16.90
2023-04-09T17:29:56.349Z,13.38
2023-04-09T17:32:23.102Z,11.73
2023-04-09T17:34:49.828Z,14.20
2023-04-09T17:37:16.810Z,13.50
2023-04-09T17:39:43.453Z,13.43
2023-04-09T17:42:12.038Z,14.10
2023-04-09T17:44:38.932Z,12.38
2023-04-09T17:47:07.370Z,15.13
2023-04-09T17:49:34.397Z,12.82
2023-04-09T17:52:01.468Z,13.27
2023-04-09T17:54:34.395Z,11.40
2023-04-09T17:57:04.008Z,12.23
2023-04-09T17:59:32.124Z,11.85
2023-04-09T18:01:59.090Z,11.40
2023-04-09T18:04:27.037Z,12.73
2023-04-09T18:06:54.791Z,12.80
2023-04-09T18:09:21.890Z,11.25
2023-04-09T18:11:48.990Z,12.43
2023-04-09T18:14:15.818Z,13.48
2023-04-09T18:16:42.615Z,11.73
2023-04-09T18:19:10.113Z,14.07
2023-04-09T18:21:36.932Z,13.38
2023-04-09T18:24:04.572Z,13.38
2023-04-09T18:26:33.291Z,16.52
2023-04-09T18:29:01.181Z,12.40
2023-04-09T18:31:28.573Z,18.25
2023-04-09T18:33:56.078Z,13.20
2023-04-09T18:36:22.767Z,14.73
2023-04-09T18:38:49.444Z,16.55
2023-04-09T18:41:26.732Z,14.13
2023-04-09T18:43:54.126Z,14.25
2023-04-09T18:46:20.863Z,13.82
2023-04-09T18:48:47.605Z,14.90
2023-04-09T18:51:14.773Z,14.88
2023-04-09T18:53:41.878Z,14.53
2023-04-09T18:56:08.804Z,15.43
2023-04-09T18:58:36.199Z,14.90
2023-04-09T19:01:12.732Z,15.55
2023-04-09T19:03:40.313Z,27.10
2023-04-09T19:06:15.682Z,15.00
2023-04-09T19:08:42.384Z,14.10
2023-04-09T19:11:09.140Z,14.80
2023-04-09T19:13:37.490Z,14.60
2023-04-09T19:16:06.187Z,13.85
2023-04-09T19:18:34.262Z,15.67
2023-04-09T19:21:01.090Z,14.98
2023-04-09T19:23:27.956Z,16.45
2023-04-09T19:25:55.665Z,16.42
2023-04-09T19:28:22.982Z,15.88
2023-04-09T19:30:52.435Z,14.07
2023-04-09T19:33:26.988Z,17.70
2023-04-09T19:35:55.519Z,16.67
2023-04-09T19:38:22.581Z,16.25
2023-04-09T19:40:49.576Z,16.27
2023-04-09T19:43:16.431Z,14.67
2023-04-09T19:45:43.520Z,16.65
2023-04-09T19:48:10.307Z,15.63
2023-04-09T19:50:38.405Z,17.45
2023-04-09T19:53:06.002Z,16.00
2023-04-09T19:55:36.273Z,24.10
2023-04-09T19:58:03.670Z,14.75
2023-04-09T20:00:31.989Z,14.75
2023-04-09T20:02:58.934Z,17.13
2023-04-09T20:05:26.064Z,15.55
2023-04-09T20:07:52.991Z,14.47
2023-04-09T20:10:19.998Z,16.20
2023-04-09T20:12:47.914Z,14.52
2023-04-09T20:15:15.321Z,15.75
2023-04-09T20:17:42.580Z,17.60
2023-04-09T20:20:09.627Z,21.73
2023-04-09T20:22:36.410Z,16.95
2023-04-09T20:25:03.102Z,17.70
2023-04-09T20:27:29.789Z,18.13
2023-04-09T20:29:56.471Z,16.45
2023-04-09T20:32:23.210Z,18.50
2023-04-09T20:34:49.950Z,17.38
2023-04-09T20:37:16.615Z,20.02
2023-04-09T20:39:43.310Z,22.10
2023-04-09T20:42:09.937Z,20.60
2023-04-09T20:44:36.592Z,17.40
2023-04-09T20:47:03.441Z,17.20
2023-04-09T20:49:30.110Z,20.60
2023-04-09T20:51:56.838Z,16.80
2023-04-09T20:54:23.566Z,17.05
2023-04-09T20:56:51.201Z,17.73
2023-04-09T20:59:19.139Z,16.40
2023-04-09T21:01:46.049Z,17.65
2023-04-09T21:04:13.020Z,18.48
2023-04-09T21:06:40.354Z,20.23
2023-04-09T21:09:07.168Z,20.07
2023-04-09T21:11:33.940Z,19.35
2023-04-09T21:14:00.661Z,19.00
2023-04-09T21:16:29.637Z,17.77
2023-04-09T21:18:56.508Z,16.20
2023-04-09T21:21:23.507Z,22.63
2023-04-09T21:23:50.313Z,19.20
2023-04-09T21:26:17.026Z,19.60
2023-04-09T21:28:44.290Z,20.88
2023-04-09T21:31:11.454Z,20.92
2023-04-09T21:33:39.089Z,24.17
2023-04-09T21:36:07.630Z,20.05
2023-04-09T21:38:34.632Z,21.15
2023-04-09T21:41:01.690Z,20.58
2023-04-09T21:43:29.089Z,21.02
2023-04-09T21:45:59.506Z,19.70
2023-04-09T21:48:30.497Z,20.50
2023-04-09T21:50:58.324Z,21.27
2023-04-09T21:53:25.064Z,20.35
2023-04-09T21:55:51.791Z,19.23
2023-04-09T21:58:18.550Z,20.13
2023-04-09T22:00:45.419Z,19.40
2023-04-09T22:03:12.475Z,21.35
2023-04-09T22:05:39.349Z,19.85
2023-04-09T22:08:06.136Z,21.73
2023-04-09T22:10:32.910Z,21.13
2023-04-09T22:12:59.570Z,24.08
2023-04-09T22:15:26.317Z,19.95
2023-04-09T22:17:53.027Z,20.27
2023-04-09T22:20:19.805Z,17.48
2023-04-09T22:22:48.145Z,22.47
2023-04-09T22:25:16.349Z,21.92
2023-04-09T22:27:43.772Z,19.63
2023-04-09T22:30:10.713Z,20.85
2023-04-09T22:32:37.436Z,22.85
2023-04-09T22:35:04.372Z,21.70
2023-04-09T22:37:31.478Z,21.10
2023-04-09T22:39:58.159Z,21.20
2023-04-09T22:42:25.587Z,17.45
2023-04-09T22:44:53.772Z,20.48
2023-04-09T22:47:20.607Z,21.67
2023-04-09T22:49:47.438Z,21.33
2023-04-09T22:52:14.131Z,20.95
2023-04-09T22:54:43.031Z,20.25
2023-04-09T22:57:09.713Z,22.63
2023-04-09T22:59:40.352Z,22.70
2023-04-09T23:02:07.975Z,24.90
2023-04-09T23:04:35.034Z,36.55
2023-04-09T23:07:02.376Z,35.65
2023-04-09T23:09:30.818Z,35.67
2023-04-09T23:11:57.888Z,34.33
2023-04-09T23:14:24.590Z,39.63
2023-04-09T23:16:51.285Z,34.97
2023-04-09T23:19:17.928Z,33.22
2023-04-09T23:21:44.602Z,38.33
2023-04-09T23:24:11.317Z,34.90
2023-04-09T23:26:37.965Z,30.73
2023-04-09T23:29:04.660Z,28.67
2023-04-09T23:31:31.402Z,23.25
2023-04-09T23:33:58.192Z,30.83
2023-04-09T23:36:24.950Z,22.47
2023-04-09T23:38:51.659Z,21.20
2023-04-09T23:41:18.380Z,23.25
2023-04-09T23:43:45.812Z,21.35
2023-04-09T23:46:12.512Z,22.65
2023-04-09T23:48:40.286Z,23.30
2023-04-09T23:51:07.027Z,25.75
2023-04-09T23:53:33.654Z,24.50
2023-04-09T23:56:00.663Z,19.58
2023-04-09T23:58:27.457Z,20.60
